sensor_id;sensor_type;location;lat;lon;timestamp;P1;durP1;ratioP1;P2;durP2;ratioP2
68225;SDS011;55045;49.410;11.030;2023-05-07T00:06:05;8.77;;;6.22;;
68225;SDS011;55045;49.410;11.030;2023-05-07T00:09:08;7.38;;;6.68;;
68225;SDS011;55045;49.410;11.030;2023-05-07T00:13:39;9.65;;;6.22;;
68225;SDS011;55045;49.410;11.030;2023-05-07T00:20:44;9.25;;;6.53;;
68225;SDS011;55045;49.410;11.030;2023-05-07T00:23:50;9.65;;;6.82;;
68225;SDS011;55045;49.410;11.030;2023-05-07T00:32:14;8.48;;;6.75;;
68225;SDS011;55045;49.410;11.030;2023-05-07T00:35:22;10.43;;;7.05;;
68225;SDS011;55045;49.410;11.030;2023-05-07T00:38:43;9.25;;;6.60;;
68225;SDS011;55045;49.410;11.030;2023-05-07T00:46:06;10.13;;;7.10;;
68225;SDS011;55045;49.410;11.030;2023-05-07T00:50:11;9.05;;;7.35;;
68225;SDS011;55045;49.410;11.030;2023-05-07T00:53:51;10.80;;;8.55;;
68225;SDS011;55045;49.410;11.030;2023-05-07T00:57:05;16.75;;;12.80;;
68225;SDS011;55045;49.410;11.030;2023-05-07T01:00:23;14.93;;;13.32;;
68225;SDS011;55045;49.410;11.030;2023-05-07T01:03:36;16.88;;;13.02;;
68225;SDS011;55045;49.410;11.030;2023-05-07T01:14:31;14.88;;;12.70;;
68225;SDS011;55045;49.410;11.030;2023-05-07T01:18:20;17.10;;;12.55;;
68225;SDS011;55045;49.410;11.030;2023-05-07T01:26:17;12.47;;;11.20;;
68225;SDS011;55045;49.410;11.030;2023-05-07T01:29:46;12.70;;;10.25;;
68225;SDS011;55045;49.410;11.030;2023-05-07T01:38:06;9.07;;;8.18;;
68225;SDS011;55045;49.410;11.030;2023-05-07T01:45:09;12.00;;;9.27;;
68225;SDS011;55045;49.410;11.030;2023-05-07T01:51:58;12.80;;;8.82;;
68225;SDS011;55045;49.410;11.030;2023-05-07T01:55:47;10.57;;;9.27;;
68225;SDS011;55045;49.410;11.030;2023-05-07T01:59:16;14.48;;;10.48;;
68225;SDS011;55045;49.410;11.030;2023-05-07T02:02:30;14.25;;;10.63;;
68225;SDS011;55045;49.410;11.030;2023-05-07T02:05:37;12.20;;;9.82;;
68225;SDS011;55045;49.410;11.030;2023-05-07T02:13:14;11.48;;;9.82;;
68225;SDS011;55045;49.410;11.030;2023-05-07T02:16:19;15.15;;;9.93;;
68225;SDS011;55045;49.410;11.030;2023-05-07T02:19:30;13.85;;;9.32;;
68225;SDS011;55045;49.410;11.030;2023-05-07T02:22:40;13.13;;;8.70;;
68225;SDS011;55045;49.410;11.030;2023-05-07T02:25:52;12.43;;;9.82;;
68225;SDS011;55045;49.410;11.030;2023-05-07T02:29:09;12.45;;;10.43;;
68225;SDS011;55045;49.410;11.030;2023-05-07T02:32:36;13.52;;;10.68;;
68225;SDS011;55045;49.410;11.030;2023-05-07T02:39:37;14.85;;;11.60;;
68225;SDS011;55045;49.410;11.030;2023-05-07T02:42:59;15.73;;;10.95;;
68225;SDS011;55045;49.410;11.030;2023-05-07T02:46:03;17.67;;;11.20;;
68225;SDS011;55045;49.410;11.030;2023-05-07T02:54:42;12.80;;;10.13;;
68225;SDS011;55045;49.410;11.030;2023-05-07T03:01:38;14.05;;;11.27;;
68225;SDS011;55045;49.410;11.030;2023-05-07T03:05:20;15.70;;;11.30;;
68225;SDS011;55045;49.410;11.030;2023-05-07T03:08:56;13.70;;;11.32;;
68225;SDS011;55045;49.410;11.030;2023-05-07T03:19:55;13.38;;;10.80;;
68225;SDS011;55045;49.410;11.030;2023-05-07T03:23:13;13.68;;;11.48;;
68225;SDS011;55045;49.410;11.030;2023-05-07T03:26:22;11.27;;;9.52;;
68225;SDS011;55045;49.410;11.030;2023-05-07T03:29:39;15.30;;;10.63;;
68225;SDS011;55045;49.410;11.030;2023-05-07T03:38:43;12.38;;;9.48;;
68225;SDS011;55045;49.410;11.030;2023-05-07T03:54:24;8.77;;;7.97;;
68225;SDS011;55045;49.410;11.030;2023-05-07T04:02:09;12.20;;;7.85;;
68225;SDS011;55045;49.410;11.030;2023-05-07T04:05:41;12.80;;;8.60;;
68225;SDS011;55045;49.410;11.030;2023-05-07T04:08:48;11.48;;;8.05;;
68225;SDS011;55045;49.410;11.030;2023-05-07T04:11:57;10.60;;;7.75;;
68225;SDS011;55045;49.410;11.030;2023-05-07T04:15:49;8.60;;;7.00;;
68225;SDS011;55045;49.410;11.030;2023-05-07T04:19:38;8.77;;;7.15;;
68225;SDS011;55045;49.410;11.030;2023-05-07T04:23:12;8.60;;;6.18;;
68225;SDS011;55045;49.410;11.030;2023-05-07T04:26:40;7.93;;;7.13;;
68225;SDS011;55045;49.410;11.030;2023-05-07T04:29:49;9.27;;;6.57;;
68225;SDS011;55045;49.410;11.030;2023-05-07T04:40:55;9.07;;;7.70;;
68225;SDS011;55045;49.410;11.030;2023-05-07T04:47:31;8.95;;;7.10;;
68225;SDS011;55045;49.410;11.030;2023-05-07T04:50:47;7.95;;;7.15;;
68225;SDS011;55045;49.410;11.030;2023-05-07T04:54:23;7.63;;;6.53;;
68225;SDS011;55045;49.410;11.030;2023-05-07T04:58:12;8.10;;;7.30;;
68225;SDS011;55045;49.410;11.030;2023-05-07T05:05:10;10.55;;;7.70;;
68225;SDS011;55045;49.410;11.030;2023-05-07T05:08:35;9.93;;;8.55;;
68225;SDS011;55045;49.410;11.030;2023-05-07T05:11:42;10.55;;;7.90;;
68225;SDS011;55045;49.410;11.030;2023-05-07T05:19:15;11.10;;;8.40;;
68225;SDS011;55045;49.410;11.030;2023-05-07T05:22:32;9.95;;;8.40;;
68225;SDS011;55045;49.410;11.030;2023-05-07T05:26:24;10.35;;;8.68;;
68225;SDS011;55045;49.410;11.030;2023-05-07T05:33:18;12.88;;;8.95;;
68225;SDS011;55045;49.410;11.030;2023-05-07T05:37:15;9.77;;;6.93;;
68225;SDS011;55045;49.410;11.030;2023-05-07T05:40:26;12.38;;;8.90;;
68225;SDS011;55045;49.410;11.030;2023-05-07T05:43:44;10.95;;;9.13;;
68225;SDS011;55045;49.410;11.030;2023-05-07T05:54:33;11.80;;;9.13;;
68225;SDS011;55045;49.410;11.030;2023-05-07T05:58:02;12.95;;;8.65;;
68225;SDS011;55045;49.410;11.030;2023-05-07T06:01:13;12.48;;;9.57;;
68225;SDS011;55045;49.410;11.030;2023-05-07T06:04:52;11.50;;;8.68;;
68225;SDS011;55045;49.410;11.030;2023-05-07T06:07:57;11.93;;;7.68;;
68225;SDS011;55045;49.410;11.030;2023-05-07T06:11:14;12.05;;;8.20;;
68225;SDS011;55045;49.410;11.030;2023-05-07T06:18:55;11.13;;;8.82;;
68225;SDS011;55045;49.410;11.030;2023-05-07T06:22:05;11.77;;;8.68;;
68225;SDS011;55045;49.410;11.030;2023-05-07T06:25:12;12.07;;;9.48;;
68225;SDS011;55045;49.410;11.030;2023-05-07T06:32:23;12.32;;;9.38;;
68225;SDS011;55045;49.410;11.030;2023-05-07T06:47:58;10.07;;;8.93;;
68225;SDS011;55045;49.410;11.030;2023-05-07T06:51:44;10.27;;;8.13;;
68225;SDS011;55045;49.410;11.030;2023-05-07T06:54:47;10.50;;;8.18;;
68225;SDS011;55045;49.410;11.030;2023-05-07T07:02:32;9.27;;;7.60;;
68225;SDS011;55045;49.410;11.030;2023-05-07T07:10:37;10.50;;;8.30;;
68225;SDS011;55045;49.410;11.030;2023-05-07T07:21:41;10.13;;;7.22;;
68225;SDS011;55045;49.410;11.030;2023-05-07T07:24:46;8.55;;;7.32;;
68225;SDS011;55045;49.410;11.030;2023-05-07T07:28:35;8.13;;;7.30;;
68225;SDS011;55045;49.410;11.030;2023-05-07T07:40:06;8.35;;;6.45;;
68225;SDS011;55045;49.410;11.030;2023-05-07T07:44:25;7.90;;;6.57;;
68225;SDS011;55045;49.410;11.030;2023-05-07T07:48:08;8.52;;;7.35;;
68225;SDS011;55045;49.410;11.030;2023-05-07T07:51:52;8.68;;;7.13;;
68225;SDS011;55045;49.410;11.030;2023-05-07T07:55:20;8.07;;;6.78;;
68225;SDS011;55045;49.410;11.030;2023-05-07T08:00:10;10.75;;;7.10;;
68225;SDS011;55045;49.410;11.030;2023-05-07T08:11:35;8.80;;;6.85;;
68225;SDS011;55045;49.410;11.030;2023-05-07T08:16:03;9.05;;;6.40;;
68225;SDS011;55045;49.410;11.030;2023-05-07T08:19:48;7.97;;;5.90;;
68225;SDS011;55045;49.410;11.030;2023-05-07T08:23:07;8.38;;;6.45;;
68225;SDS011;55045;49.410;11.030;2023-05-07T08:33:38;6.93;;;5.63;;
68225;SDS011;55045;49.410;11.030;2023-05-07T08:37:05;6.07;;;5.40;;
68225;SDS011;55045;49.410;11.030;2023-05-07T08:52:21;8.82;;;5.07;;
68225;SDS011;55045;49.410;11.030;2023-05-07T08:55:25;6.40;;;5.30;;
68225;SDS011;55045;49.410;11.030;2023-05-07T08:58:28;5.78;;;4.80;;
68225;SDS011;55045;49.410;11.030;2023-05-07T09:02:25;6.72;;;4.45;;
68225;SDS011;55045;49.410;11.030;2023-05-07T09:05:31;6.60;;;5.32;;
68225;SDS011;55045;49.410;11.030;2023-05-07T09:17:54;6.68;;;4.80;;
68225;SDS011;55045;49.410;11.030;2023-05-07T09:21:03;5.70;;;4.85;;
68225;SDS011;55045;49.410;11.030;2023-05-07T09:28:13;6.10;;;4.82;;
68225;SDS011;55045;49.410;11.030;2023-05-07T09:35:25;6.68;;;4.13;;
68225;SDS011;55045;49.410;11.030;2023-05-07T09:43:13;4.05;;;3.58;;
68225;SDS011;55045;49.410;11.030;2023-05-07T09:46:59;3.92;;;3.50;;
68225;SDS011;55045;49.410;11.030;2023-05-07T09:50:17;4.25;;;3.85;;
68225;SDS011;55045;49.410;11.030;2023-05-07T09:58:11;4.18;;;3.78;;
68225;SDS011;55045;49.410;11.030;2023-05-07T10:01:35;5.03;;;3.53;;
68225;SDS011;55045;49.410;11.030;2023-05-07T10:04:50;3.83;;;3.10;;
68225;SDS011;55045;49.410;11.030;2023-05-07T10:17:30;4.57;;;3.45;;
68225;SDS011;55045;49.410;11.030;2023-05-07T10:21:16;4.03;;;3.20;;
68225;SDS011;55045;49.410;11.030;2023-05-07T10:25:04;3.67;;;3.20;;
68225;SDS011;55045;49.410;11.030;2023-05-07T10:29:29;3.50;;;2.95;;
68225;SDS011;55045;49.410;11.030;2023-05-07T10:32:45;4.28;;;3.13;;
68225;SDS011;55045;49.410;11.030;2023-05-07T10:36:46;3.40;;;3.03;;
68225;SDS011;55045;49.410;11.030;2023-05-07T10:39:57;3.13;;;2.47;;
68225;SDS011;55045;49.410;11.030;2023-05-07T10:47:14;5.32;;;3.17;;
68225;SDS011;55045;49.410;11.030;2023-05-07T10:54:47;3.92;;;3.10;;
68225;SDS011;55045;49.410;11.030;2023-05-07T11:03:19;4.05;;;2.75;;
68225;SDS011;55045;49.410;11.030;2023-05-07T11:11:50;3.75;;;3.40;;
68225;SDS011;55045;49.410;11.030;2023-05-07T11:19:58;3.05;;;2.85;;
68225;SDS011;55045;49.410;11.030;2023-05-07T11:23:12;3.70;;;3.30;;
68225;SDS011;55045;49.410;11.030;2023-05-07T11:28:27;2.92;;;2.63;;
68225;SDS011;55045;49.410;11.030;2023-05-07T11:32:24;3.15;;;2.85;;
68225;SDS011;55045;49.410;11.030;2023-05-07T11:36:14;3.13;;;2.60;;
68225;SDS011;55045;49.410;11.030;2023-05-07T11:40:49;3.30;;;3.00;;
68225;SDS011;55045;49.410;11.030;2023-05-07T11:48:31;4.40;;;4.00;;
68225;SDS011;55045;49.410;11.030;2023-05-07T11:55:47;4.78;;;3.60;;
68225;SDS011;55045;49.410;11.030;2023-05-07T11:59:19;6.72;;;3.60;;
68225;SDS011;55045;49.410;11.030;2023-05-07T12:03:20;5.03;;;3.50;;
68225;SDS011;55045;49.410;11.030;2023-05-07T12:10:17;3.88;;;3.25;;
68225;SDS011;55045;49.410;11.030;2023-05-07T12:14:01;3.28;;;2.97;;
68225;SDS011;55045;49.410;11.030;2023-05-07T12:21:03;4.20;;;3.30;;
68225;SDS011;55045;49.410;11.030;2023-05-07T12:24:47;3.92;;;3.50;;
68225;SDS011;55045;49.410;11.030;2023-05-07T12:28:12;3.28;;;2.90;;
68225;SDS011;55045;49.410;11.030;2023-05-07T12:32:27;3.50;;;3.20;;
68225;SDS011;55045;49.410;11.030;2023-05-07T12:36:18;3.67;;;3.38;;
68225;SDS011;55045;49.410;11.030;2023-05-07T12:39:37;3.60;;;3.25;;
68225;SDS011;55045;49.410;11.030;2023-05-07T12:42:47;4.07;;;3.00;;
68225;SDS011;55045;49.410;11.030;2023-05-07T12:46:05;3.75;;;2.53;;
68225;SDS011;55045;49.410;11.030;2023-05-07T12:49:34;3.60;;;2.88;;
68225;SDS011;55045;49.410;11.030;2023-05-07T12:52:45;3.38;;;2.90;;
68225;SDS011;55045;49.410;11.030;2023-05-07T13:08:12;4.05;;;2.90;;
68225;SDS011;55045;49.410;11.030;2023-05-07T13:11:56;3.10;;;2.80;;
68225;SDS011;55045;49.410;11.030;2023-05-07T13:19:39;2.90;;;2.42;;
68225;SDS011;55045;49.410;11.030;2023-05-07T13:29:58;4.53;;;3.00;;
68225;SDS011;55045;49.410;11.030;2023-05-07T13:33:04;3.30;;;3.00;;
68225;SDS011;55045;49.410;11.030;2023-05-07T13:36:07;3.22;;;2.88;;
68225;SDS011;55045;49.410;11.030;2023-05-07T13:39:18;2.85;;;2.58;;
68225;SDS011;55045;49.410;11.030;2023-05-07T13:42:57;3.55;;;2.67;;
68225;SDS011;55045;49.410;11.030;2023-05-07T13:46:38;3.28;;;2.97;;
68225;SDS011;55045;49.410;11.030;2023-05-07T13:49:46;3.03;;;2.60;;
68225;SDS011;55045;49.410;11.030;2023-05-07T13:53:00;8.45;;;2.88;;
68225;SDS011;55045;49.410;11.030;2023-05-07T13:56:15;3.42;;;2.40;;
68225;SDS011;55045;49.410;11.030;2023-05-07T13:59:27;4.93;;;3.10;;
68225;SDS011;55045;49.410;11.030;2023-05-07T14:02:37;5.47;;;3.00;;
68225;SDS011;55045;49.410;11.030;2023-05-07T14:10:11;4.05;;;3.33;;
68225;SDS011;55045;49.410;11.030;2023-05-07T14:33:15;3.40;;;3.10;;
68225;SDS011;55045;49.410;11.030;2023-05-07T14:36:27;4.00;;;3.00;;
68225;SDS011;55045;49.410;11.030;2023-05-07T14:40:11;3.90;;;3.47;;
68225;SDS011;55045;49.410;11.030;2023-05-07T14:43:34;5.50;;;2.90;;
68225;SDS011;55045;49.410;11.030;2023-05-07T14:46:39;3.78;;;3.28;;
68225;SDS011;55045;49.410;11.030;2023-05-07T14:49:53;4.97;;;3.53;;
68225;SDS011;55045;49.410;11.030;2023-05-07T14:53:02;4.40;;;3.60;;
68225;SDS011;55045;49.410;11.030;2023-05-07T14:56:22;3.70;;;3.38;;
68225;SDS011;55045;49.410;11.030;2023-05-07T14:59:25;4.95;;;3.60;;
68225;SDS011;55045;49.410;11.030;2023-05-07T15:03:21;3.50;;;3.20;;
68225;SDS011;55045;49.410;11.030;2023-05-07T15:06:37;3.88;;;3.50;;
68225;SDS011;55045;49.410;11.030;2023-05-07T15:09:56;4.15;;;3.58;;
68225;SDS011;55045;49.410;11.030;2023-05-07T15:13:05;6.47;;;3.97;;
68225;SDS011;55045;49.410;11.030;2023-05-07T15:19:40;4.70;;;3.80;;
68225;SDS011;55045;49.410;11.030;2023-05-07T15:23:00;6.32;;;3.88;;
68225;SDS011;55045;49.410;11.030;2023-05-07T15:26:26;5.07;;;4.30;;
68225;SDS011;55045;49.410;11.030;2023-05-07T15:29:57;5.35;;;3.60;;
68225;SDS011;55045;49.410;11.030;2023-05-07T15:38:59;4.63;;;3.80;;
68225;SDS011;55045;49.410;11.030;2023-05-07T15:42:19;4.20;;;3.55;;
68225;SDS011;55045;49.410;11.030;2023-05-07T15:45:30;4.47;;;4.00;;
68225;SDS011;55045;49.410;11.030;2023-05-07T15:48:48;4.97;;;4.32;;
68225;SDS011;55045;49.410;11.030;2023-05-07T15:53:33;4.97;;;3.88;;
68225;SDS011;55045;49.410;11.030;2023-05-07T15:56:39;4.68;;;3.88;;
68225;SDS011;55045;49.410;11.030;2023-05-07T15:59:42;5.53;;;4.30;;
68225;SDS011;55045;49.410;11.030;2023-05-07T16:03:27;4.45;;;4.05;;
68225;SDS011;55045;49.410;11.030;2023-05-07T16:06:37;5.18;;;4.13;;
68225;SDS011;55045;49.410;11.030;2023-05-07T16:10:00;5.00;;;3.90;;
68225;SDS011;55045;49.410;11.030;2023-05-07T16:13:06;5.53;;;4.18;;
68225;SDS011;55045;49.410;11.030;2023-05-07T16:16:10;5.13;;;4.50;;
68225;SDS011;55045;49.410;11.030;2023-05-07T16:19:28;5.70;;;4.50;;
68225;SDS011;55045;49.410;11.030;2023-05-07T16:22:49;6.22;;;4.72;;
68225;SDS011;55045;49.410;11.030;2023-05-07T16:30:22;5.30;;;4.30;;
68225;SDS011;55045;49.410;11.030;2023-05-07T16:41:32;4.57;;;4.15;;
68225;SDS011;55045;49.410;11.030;2023-05-07T16:44:36;6.38;;;4.53;;
68225;SDS011;55045;49.410;11.030;2023-05-07T16:47:39;4.88;;;4.38;;
68225;SDS011;55045;49.410;11.030;2023-05-07T16:51:58;5.32;;;4.82;;
68225;SDS011;55045;49.410;11.030;2023-05-07T16:58:48;5.95;;;4.30;;
68225;SDS011;55045;49.410;11.030;2023-05-07T17:02:01;5.10;;;4.22;;
68225;SDS011;55045;49.410;11.030;2023-05-07T17:05:26;4.63;;;4.10;;
68225;SDS011;55045;49.410;11.030;2023-05-07T17:08:38;4.82;;;4.30;;
68225;SDS011;55045;49.410;11.030;2023-05-07T17:12:09;6.07;;;4.38;;
68225;SDS011;55045;49.410;11.030;2023-05-07T17:26:17;4.50;;;4.03;;
68225;SDS011;55045;49.410;11.030;2023-05-07T17:30:40;6.60;;;4.57;;
68225;SDS011;55045;49.410;11.030;2023-05-07T17:33:44;5.35;;;4.00;;
68225;SDS011;55045;49.410;11.030;2023-05-07T17:42:13;6.07;;;3.60;;
68225;SDS011;55045;49.410;11.030;2023-05-07T17:46:10;4.55;;;3.25;;
68225;SDS011;55045;49.410;11.030;2023-05-07T17:49:35;7.80;;;3.63;;
68225;SDS011;55045;49.410;11.030;2023-05-07T17:56:34;3.88;;;3.47;;
68225;SDS011;55045;49.410;11.030;2023-05-07T17:59:40;6.20;;;3.80;;
68225;SDS011;55045;49.410;11.030;2023-05-07T18:03:08;4.70;;;3.70;;
68225;SDS011;55045;49.410;11.030;2023-05-07T18:06:14;5.38;;;3.90;;
68225;SDS011;55045;49.410;11.030;2023-05-07T18:09:42;4.93;;;3.70;;
68225;SDS011;55045;49.410;11.030;2023-05-07T18:13:26;5.07;;;3.90;;
68225;SDS011;55045;49.410;11.030;2023-05-07T18:16:34;4.68;;;3.97;;
68225;SDS011;55045;49.410;11.030;2023-05-07T18:20:01;5.32;;;3.28;;
68225;SDS011;55045;49.410;11.030;2023-05-07T18:28:16;3.95;;;3.53;;
68225;SDS011;55045;49.410;11.030;2023-05-07T18:35:31;3.97;;;3.20;;
68225;SDS011;55045;49.410;11.030;2023-05-07T18:41:56;4.72;;;3.60;;
68225;SDS011;55045;49.410;11.030;2023-05-07T18:45:18;4.05;;;3.50;;
68225;SDS011;55045;49.410;11.030;2023-05-07T18:52:35;3.92;;;3.50;;
68225;SDS011;55045;49.410;11.030;2023-05-07T18:56:05;12.98;;;3.78;;
68225;SDS011;55045;49.410;11.030;2023-05-07T19:03:38;4.38;;;3.80;;
68225;SDS011;55045;49.410;11.030;2023-05-07T19:11:57;5.72;;;3.70;;
68225;SDS011;55045;49.410;11.030;2023-05-07T19:15:08;4.80;;;4.32;;
68225;SDS011;55045;49.410;11.030;2023-05-07T19:48:18;4.78;;;4.10;;
68225;SDS011;55045;49.410;11.030;2023-05-07T19:51:41;7.13;;;4.35;;
68225;SDS011;55045;49.410;11.030;2023-05-07T19:55:04;8.45;;;4.63;;
68225;SDS011;55045;49.410;11.030;2023-05-07T19:58:29;5.55;;;4.43;;
68225;SDS011;55045;49.410;11.030;2023-05-07T20:03:15;8.43;;;4.72;;
68225;SDS011;55045;49.410;11.030;2023-05-07T20:06:39;6.75;;;4.70;;
68225;SDS011;55045;49.410;11.030;2023-05-07T20:10:02;5.43;;;4.70;;
68225;SDS011;55045;49.410;11.030;2023-05-07T20:13:25;4.78;;;4.30;;
68225;SDS011;55045;49.410;11.030;2023-05-07T20:18:14;6.72;;;5.20;;
68225;SDS011;55045;49.410;11.030;2023-05-07T20:21:37;7.38;;;4.80;;
68225;SDS011;55045;49.410;11.030;2023-05-07T20:25:02;5.10;;;4.60;;
68225;SDS011;55045;49.410;11.030;2023-05-07T20:28:26;5.22;;;4.53;;
68225;SDS011;55045;49.410;11.030;2023-05-07T20:33:15;8.82;;;4.65;;
68225;SDS011;55045;49.410;11.030;2023-05-07T20:36:38;6.18;;;4.63;;
68225;SDS011;55045;49.410;11.030;2023-05-07T20:40:01;5.00;;;4.40;;
68225;SDS011;55045;49.410;11.030;2023-05-07T20:43:25;5.80;;;5.05;;
68225;SDS011;55045;49.410;11.030;2023-05-07T20:48:14;5.80;;;5.20;;
68225;SDS011;55045;49.410;11.030;2023-05-07T20:51:37;6.50;;;5.00;;
68225;SDS011;55045;49.410;11.030;2023-05-07T21:34:40;5.32;;;4.82;;
68225;SDS011;55045;49.410;11.030;2023-05-07T21:37:44;5.80;;;4.68;;
68225;SDS011;55045;49.410;11.030;2023-05-07T21:40:47;6.38;;;4.88;;
68225;SDS011;55045;49.410;11.030;2023-05-07T21:43:51;5.85;;;4.57;;
68225;SDS011;55045;49.410;11.030;2023-05-07T21:47:06;7.10;;;4.85;;
68225;SDS011;55045;49.410;11.030;2023-05-07T21:50:11;5.63;;;4.60;;
68225;SDS011;55045;49.410;11.030;2023-05-07T21:53:14;5.72;;;4.57;;
68225;SDS011;55045;49.410;11.030;2023-05-07T21:56:18;5.20;;;4.45;;
68225;SDS011;55045;49.410;11.030;2023-05-07T21:59:21;5.75;;;5.05;;
68225;SDS011;55045;49.410;11.030;2023-05-07T22:02:24;6.05;;;5.03;;
68225;SDS011;55045;49.410;11.030;2023-05-07T22:05:29;5.65;;;5.05;;
68225;SDS011;55045;49.410;11.030;2023-05-07T22:08:32;5.47;;;4.68;;
68225;SDS011;55045;49.410;11.030;2023-05-07T22:11:35;6.75;;;5.38;;
68225;SDS011;55045;49.410;11.030;2023-05-07T22:14:38;6.57;;;5.15;;
68225;SDS011;55045;49.410;11.030;2023-05-07T22:17:42;6.53;;;5.00;;
68225;SDS011;55045;49.410;11.030;2023-05-07T22:20:47;5.70;;;4.63;;
68225;SDS011;55045;49.410;11.030;2023-05-07T22:23:52;6.40;;;4.80;;
68225;SDS011;55045;49.410;11.030;2023-05-07T22:26:55;6.45;;;5.25;;
68225;SDS011;55045;49.410;11.030;2023-05-07T22:29:58;5.43;;;4.40;;
68225;SDS011;55045;49.410;11.030;2023-05-07T22:33:02;4.97;;;4.32;;
68225;SDS011;55045;49.410;11.030;2023-05-07T22:36:07;6.13;;;4.70;;
68225;SDS011;55045;49.410;11.030;2023-05-07T22:39:10;5.45;;;4.90;;
68225;SDS011;55045;49.410;11.030;2023-05-07T22:42:13;7.30;;;5.03;;
68225;SDS011;55045;49.410;11.030;2023-05-07T22:45:16;6.90;;;5.00;;
68225;SDS011;55045;49.410;11.030;2023-05-07T22:48:19;6.53;;;5.00;;
68225;SDS011;55045;49.410;11.030;2023-05-07T22:51:24;5.38;;;4.80;;
68225;SDS011;55045;49.410;11.030;2023-05-07T22:54:29;5.97;;;4.60;;
68225;SDS011;55045;49.410;11.030;2023-05-07T22:57:32;6.32;;;4.65;;
68225;SDS011;55045;49.410;11.030;2023-05-07T23:00:36;5.22;;;4.72;;
68225;SDS011;55045;49.410;11.030;2023-05-07T23:03:39;6.75;;;4.78;;
68225;SDS011;55045;49.410;11.030;2023-05-07T23:06:44;8.27;;;5.15;;
68225;SDS011;55045;49.410;11.030;2023-05-07T23:09:47;5.50;;;4.80;;
68225;SDS011;55045;49.410;11.030;2023-05-07T23:12:50;5.95;;;4.80;;
68225;SDS011;55045;49.410;11.030;2023-05-07T23:15:53;8.75;;;5.45;;
68225;SDS011;55045;49.410;11.030;2023-05-07T23:18:57;5.50;;;4.80;;
68225;SDS011;55045;49.410;11.030;2023-05-07T23:22:01;5.65;;;4.85;;
68225;SDS011;55045;49.410;11.030;2023-05-07T23:25:05;7.03;;;4.65;;
68225;SDS011;55045;49.410;11.030;2023-05-07T23:28:10;7.95;;;5.20;;
68225;SDS011;55045;49.410;11.030;2023-05-07T23:31:13;6.07;;;5.28;;
68225;SDS011;55045;49.410;11.030;2023-05-07T23:34:16;5.13;;;4.63;;
68225;SDS011;55045;49.410;11.030;2023-05-07T23:37:26;8.35;;;5.47;;
68225;SDS011;55045;49.410;11.030;2023-05-07T23:40:29;5.35;;;4.85;;
68225;SDS011;55045;49.410;11.030;2023-05-07T23:43:32;6.28;;;5.15;;
68225;SDS011;55045;49.410;11.030;2023-05-07T23:46:36;5.93;;;4.88;;
68225;SDS011;55045;49.410;11.030;2023-05-07T23:49:39;6.22;;;4.80;;
68225;SDS011;55045;49.410;11.030;2023-05-07T23:52:44;6.13;;;5.53;;
68225;SDS011;55045;49.410;11.030;2023-05-07T23:55:47;6.20;;;5.20;;
68225;SDS011;55045;49.410;11.030;2023-05-07T23:58:50;8.15;;;5.50;;
